Time;durP1;ratioP1;P1;durP2;ratioP2;P2;SDS_P1;SDS_P2;PMS_P1;PMS_P2;Temp;Humidity;BMP_temperature;BMP_pressure;BME280_temperature;BME280_humidity;BME280_pressure;Samples;Min_cycle;Max_cycle;Signal;HPM_P1;HPM_P2
2022/03/06 00:01:05;;;;;;;4.15;1.98;;;;;;;;;;5075392;28;20055;-44
2022/03/06 00:03:31;;;;;;;2.95;2.33;;;;;;;;;;5092459;28;20653;-46
2022/03/06 00:05:57;;;;;;;4.70;2.92;;;;;;;;;;5093256;28;20427;-46
2022/03/06 00:08:23;;;;;;;3.33;2.45;;;;;;;;;;5092294;28;20024;-47
2022/03/06 00:10:50;;;;;;;2.28;1.80;;;;;;;;;;5092088;28;20074;-44
2022/03/06 00:13:16;;;;;;;3.10;2.30;;;;;;;;;;5078530;28;20103;-44
2022/03/06 00:15:43;;;;;;;3.42;2.17;;;;;;;;;;5092570;28;20044;-46
2022/03/06 00:18:09;;;;;;;3.03;2.15;;;;;;;;;;5092616;28;20473;-46
2022/03/06 00:20:35;;;;;;;3.20;2.13;;;;;;;;;;5092341;28;20035;-48
2022/03/06 00:23:01;;;;;;;3.72;2.45;;;;;;;;;;5076079;28;20069;-45
2022/03/06 00:25:27;;;;;;;3.55;2.60;;;;;;;;;;5091994;28;20123;-46
2022/03/06 00:27:53;;;;;;;3.55;2.50;;;;;;;;;;5092893;28;20028;-47
2022/03/06 00:30:19;;;;;;;3.67;2.17;;;;;;;;;;5078753;28;20035;-45
2022/03/06 00:32:45;;;;;;;3.53;2.20;;;;;;;;;;5087984;28;20480;-47
2022/03/06 00:35:11;;;;;;;2.63;2.22;;;;;;;;;;5092086;28;20477;-45
2022/03/06 00:37:37;;;;;;;3.22;2.30;;;;;;;;;;5091548;28;20465;-46
2022/03/06 00:40:04;;;;;;;3.25;2.38;;;;;;;;;;5086901;28;20021;-44
2022/03/06 00:42:30;;;;;;;3.13;2.55;;;;;;;;;;5085118;28;20038;-47
2022/03/06 00:44:56;;;;;;;3.60;2.85;;;;;;;;;;5077225;28;20066;-48
2022/03/06 00:47:22;;;;;;;2.50;2.15;;;;;;;;;;5082563;28;20040;-47
2022/03/06 00:49:49;;;;;;;3.55;2.17;;;;;;;;;;5092542;28;20028;-48
2022/03/06 00:52:15;;;;;;;3.53;2.72;;;;;;;;;;5080661;28;20029;-55
2022/03/06 00:54:41;;;;;;;3.78;2.88;;;;;;;;;;5071714;28;20366;-45
2022/03/06 00:57:07;;;;;;;2.78;2.30;;;;;;;;;;5080980;28;20092;-45
2022/03/06 00:59:34;;;;;;;3.70;2.60;;;;;;;;;;5091408;28;20028;-46
2022/03/06 01:02:01;;;;;;;4.22;2.50;;;;;;;;;;5083995;28;20093;-46
2022/03/06 01:04:27;;;;;;;3.13;2.22;;;;;;;;;;5071707;28;20107;-44
2022/03/06 01:06:53;;;;;;;3.22;2.10;;;;;;;;;;5071986;28;20496;-45
2022/03/06 01:09:19;;;;;;;2.25;1.88;;;;;;;;;;5071213;28;20024;-46
2022/03/06 01:11:45;;;;;;;2.60;2.28;;;;;;;;;;5071964;28;20028;-47
2022/03/06 01:14:11;;;;;;;2.58;2.00;;;;;;;;;;5079093;28;20027;-45
2022/03/06 01:16:37;;;;;;;3.22;2.50;;;;;;;;;;5091277;28;20062;-49
2022/03/06 01:19:03;;;;;;;4.50;2.88;;;;;;;;;;5091875;28;20016;-45
2022/03/06 01:21:29;;;;;;;3.00;2.20;;;;;;;;;;5087654;28;20074;-47
2022/03/06 01:23:55;;;;;;;2.17;1.70;;;;;;;;;;5079245;28;20016;-47
2022/03/06 01:26:21;;;;;;;2.67;1.92;;;;;;;;;;5083550;28;20040;-47
2022/03/06 01:28:47;;;;;;;3.55;2.63;;;;;;;;;;5077877;28;20029;-50
2022/03/06 01:31:13;;;;;;;3.38;2.25;;;;;;;;;;5071628;28;20036;-45
2022/03/06 01:33:39;;;;;;;2.33;1.90;;;;;;;;;;5070854;28;20090;-47
2022/03/06 01:36:05;;;;;;;2.72;2.15;;;;;;;;;;5082079;28;20103;-46
2022/03/06 01:38:31;;;;;;;3.35;2.42;;;;;;;;;;5090915;28;20096;-47
2022/03/06 01:40:57;;;;;;;2.78;2.25;;;;;;;;;;5091522;28;20134;-51
2022/03/06 01:43:23;;;;;;;3.30;2.13;;;;;;;;;;5088621;28;20063;-47
2022/03/06 01:45:49;;;;;;;3.85;2.67;;;;;;;;;;5071167;28;20062;-49
2022/03/06 01:48:15;;;;;;;3.00;2.47;;;;;;;;;;5081889;28;20389;-54
2022/03/06 01:50:42;;;;;;;2.78;2.30;;;;;;;;;;5087133;28;20457;-48
2022/03/06 01:53:09;;;;;;;3.30;2.08;;;;;;;;;;5075792;28;20025;-47
2022/03/06 01:55:35;;;;;;;4.95;2.40;;;;;;;;;;5074682;28;20028;-46
2022/03/06 01:58:02;;;;;;;3.17;2.17;;;;;;;;;;5080279;28;20432;-45
2022/03/06 02:00:31;;;;;;;2.65;2.20;;;;;;;;;;5094852;28;20364;-47
2022/03/06 02:02:57;;;;;;;3.20;2.60;;;;;;;;;;5080591;28;20393;-47
2022/03/06 02:05:23;;;;;;;2.30;1.60;;;;;;;;;;5073783;28;20016;-44
2022/03/06 02:07:49;;;;;;;3.25;2.30;;;;;;;;;;5078326;28;20028;-44
2022/03/06 02:10:15;;;;;;;2.58;2.20;;;;;;;;;;5095268;28;20036;-53
2022/03/06 02:12:42;;;;;;;2.72;2.10;;;;;;;;;;5094649;28;20020;-44
2022/03/06 02:15:09;;;;;;;2.53;2.20;;;;;;;;;;5095154;28;20445;-46
2022/03/06 02:17:37;;;;;;;3.45;2.53;;;;;;;;;;5089982;28;21013;-45
2022/03/06 02:20:14;;;;;;;2.72;1.98;;;;;;;;;;5074760;28;20033;-44
2022/03/06 02:22:41;;;;;;;2.92;2.40;;;;;;;;;;5074249;28;20032;-45
2022/03/06 02:25:11;;;;;;;3.70;2.60;;;;;;;;;;5084930;28;20028;-45
2022/03/06 02:27:38;;;;;;;4.00;2.17;;;;;;;;;;5089590;28;20107;-45
2022/03/06 02:30:05;;;;;;;3.17;2.13;;;;;;;;;;5074908;28;20024;-45
2022/03/06 02:32:31;;;;;;;2.35;1.85;;;;;;;;;;5074026;28;20029;-44
2022/03/06 02:34:57;;;;;;;2.58;2.10;;;;;;;;;;5079380;28;20420;-47
2022/03/06 02:37:23;;;;;;;2.95;2.30;;;;;;;;;;5066827;28;20048;-45
2022/03/06 02:39:50;;;;;;;4.30;2.67;;;;;;;;;;5074554;28;20373;-45
2022/03/06 02:42:29;;;;;;;3.05;2.00;;;;;;;;;;5074574;28;20031;-45
2022/03/06 02:44:55;;;;;;;2.70;2.17;;;;;;;;;;5088761;28;20024;-44
2022/03/06 02:47:21;;;;;;;2.90;2.00;;;;;;;;;;5093889;28;20055;-45
2022/03/06 02:49:48;;;;;;;2.65;1.95;;;;;;;;;;5075826;28;20021;-44
2022/03/06 02:52:14;;;;;;;4.85;2.10;;;;;;;;;;5074302;28;20060;-46
2022/03/06 02:54:40;;;;;;;3.67;2.00;;;;;;;;;;5073324;28;20605;-45
2022/03/06 02:57:07;;;;;;;3.50;2.75;;;;;;;;;;5074260;28;20028;-46
2022/03/06 02:59:32;;;;;;;3.22;2.40;;;;;;;;;;5090034;28;20023;-45
2022/03/06 03:01:59;;;;;;;3.05;2.40;;;;;;;;;;5094226;28;20025;-44
2022/03/06 03:04:25;;;;;;;2.78;2.30;;;;;;;;;;5093377;28;20116;-47
2022/03/06 03:06:52;;;;;;;3.25;2.28;;;;;;;;;;5094071;28;20039;-48
2022/03/06 03:09:22;;;;;;;2.83;2.10;;;;;;;;;;5074572;28;20027;-52
2022/03/06 03:11:50;;;;;;;2.97;2.33;;;;;;;;;;5074028;28;20029;-44
2022/03/06 03:14:17;;;;;;;3.67;2.45;;;;;;;;;;5092071;28;20028;-44
2022/03/06 03:16:43;;;;;;;2.97;2.10;;;;;;;;;;5071709;28;20144;-49
2022/03/06 03:19:10;;;;;;;2.90;2.13;;;;;;;;;;5055986;28;20533;-49
2022/03/06 03:21:36;;;;;;;3.70;2.75;;;;;;;;;;5052961;28;20023;-45
2022/03/06 03:24:02;;;;;;;3.38;2.33;;;;;;;;;;5053876;28;20099;-44
2022/03/06 03:26:28;;;;;;;3.10;2.50;;;;;;;;;;5053108;28;20029;-46
2022/03/06 03:28:54;;;;;;;3.05;2.05;;;;;;;;;;5068416;28;20032;-49
2022/03/06 03:31:21;;;;;;;2.88;2.25;;;;;;;;;;5056317;28;20028;-54
2022/03/06 03:33:47;;;;;;;3.58;2.67;;;;;;;;;;5053267;28;20037;-48
2022/03/06 03:36:13;;;;;;;3.50;3.13;;;;;;;;;;5053503;28;20099;-47
2022/03/06 03:38:40;;;;;;;3.45;2.70;;;;;;;;;;5060572;28;20025;-45
2022/03/06 03:41:07;;;;;;;3.45;2.70;;;;;;;;;;5052357;28;20096;-45
2022/03/06 03:43:33;;;;;;;3.08;2.25;;;;;;;;;;5056356;28;20028;-44
2022/03/06 03:45:59;;;;;;;3.35;2.42;;;;;;;;;;5073691;28;20032;-48
2022/03/06 03:48:26;;;;;;;3.03;2.20;;;;;;;;;;5072037;28;20025;-46
2022/03/06 03:50:52;;;;;;;2.42;2.08;;;;;;;;;;5072973;28;20531;-50
2022/03/06 03:53:18;;;;;;;3.58;2.38;;;;;;;;;;5060056;28;20033;-45
2022/03/06 03:55:44;;;;;;;2.83;2.30;;;;;;;;;;5052276;28;20437;-44
2022/03/06 03:58:10;;;;;;;3.10;2.20;;;;;;;;;;5063199;28;20108;-45
2022/03/06 04:00:36;;;;;;;2.63;2.05;;;;;;;;;;5072360;28;20028;-47
2022/03/06 04:03:02;;;;;;;3.30;2.67;;;;;;;;;;5072661;28;20024;-48
2022/03/06 04:05:28;;;;;;;2.90;2.13;;;;;;;;;;5072156;28;20104;-45
2022/03/06 04:07:54;;;;;;;3.05;2.63;;;;;;;;;;5064583;28;20021;-46
2022/03/06 04:10:20;;;;;;;2.88;2.13;;;;;;;;;;5052671;28;20036;-47
2022/03/06 04:12:46;;;;;;;3.03;2.20;;;;;;;;;;5052235;28;20033;-50
2022/03/06 04:15:12;;;;;;;3.17;2.50;;;;;;;;;;5054416;28;20404;-48
2022/03/06 04:17:38;;;;;;;4.10;2.40;;;;;;;;;;5076516;28;20036;-45
2022/03/06 04:20:05;;;;;;;2.80;2.35;;;;;;;;;;5092909;28;20028;-45
2022/03/06 04:22:31;;;;;;;2.78;2.42;;;;;;;;;;5091958;28;20032;-47
2022/03/06 04:24:57;;;;;;;4.10;2.50;;;;;;;;;;5092930;28;20028;-49
2022/03/06 04:27:23;;;;;;;3.17;2.35;;;;;;;;;;5090265;28;20126;-51
2022/03/06 04:29:49;;;;;;;2.75;2.00;;;;;;;;;;5091734;28;20469;-46
2022/03/06 04:32:15;;;;;;;3.47;2.25;;;;;;;;;;5092747;28;20031;-49
2022/03/06 04:34:41;;;;;;;3.42;2.13;;;;;;;;;;5090059;28;20039;-45
2022/03/06 04:37:07;;;;;;;3.33;2.80;;;;;;;;;;5090799;28;20028;-52
2022/03/06 04:39:33;;;;;;;3.50;2.78;;;;;;;;;;5071607;28;20031;-46
2022/03/06 04:41:59;;;;;;;3.97;2.72;;;;;;;;;;5054516;28;20091;-46
2022/03/06 04:44:25;;;;;;;3.22;2.28;;;;;;;;;;5082546;28;20024;-54
2022/03/06 04:46:51;;;;;;;3.22;2.65;;;;;;;;;;5091808;28;20032;-48
2022/03/06 04:49:17;;;;;;;3.10;2.40;;;;;;;;;;5092248;28;20030;-49
2022/03/06 04:51:43;;;;;;;3.97;2.63;;;;;;;;;;5091744;28;20016;-48
2022/03/06 04:54:09;;;;;;;3.55;2.50;;;;;;;;;;5073123;28;20107;-45
2022/03/06 04:56:36;;;;;;;4.90;2.58;;;;;;;;;;5071347;28;20021;-49
2022/03/06 04:59:02;;;;;;;3.95;2.95;;;;;;;;;;5072479;28;20024;-45
2022/03/06 05:01:28;;;;;;;3.65;2.72;;;;;;;;;;5077880;28;20035;-54
2022/03/06 05:03:54;;;;;;;3.45;2.30;;;;;;;;;;5092313;28;20024;-47
2022/03/06 05:06:20;;;;;;;2.53;2.00;;;;;;;;;;5092189;28;20028;-46
2022/03/06 05:08:46;;;;;;;2.90;2.05;;;;;;;;;;5075237;28;20465;-47
2022/03/06 05:11:12;;;;;;;3.53;2.28;;;;;;;;;;5076291;28;20016;-47
2022/03/06 05:13:38;;;;;;;2.65;2.08;;;;;;;;;;5091083;28;20024;-46
2022/03/06 05:16:05;;;;;;;3.55;2.65;;;;;;;;;;5087734;28;20048;-49
2022/03/06 05:18:31;;;;;;;3.45;2.83;;;;;;;;;;5070980;28;20028;-47
2022/03/06 05:20:57;;;;;;;5.88;2.67;;;;;;;;;;5071659;28;20033;-48
2022/03/06 05:23:23;;;;;;;3.75;2.50;;;;;;;;;;5070893;28;20025;-45
2022/03/06 05:25:49;;;;;;;3.25;2.40;;;;;;;;;;5071769;28;20035;-46
2022/03/06 05:28:15;;;;;;;3.47;2.58;;;;;;;;;;5091949;28;20032;-47
2022/03/06 05:30:41;;;;;;;3.55;2.55;;;;;;;;;;5091182;28;20024;-46
2022/03/06 05:33:07;;;;;;;3.35;2.45;;;;;;;;;;5081543;28;20070;-48
2022/03/06 05:35:33;;;;;;;3.17;2.30;;;;;;;;;;5072977;28;20680;-47
2022/03/06 05:37:59;;;;;;;3.78;2.83;;;;;;;;;;5071687;28;20032;-47
2022/03/06 05:40:25;;;;;;;3.10;2.40;;;;;;;;;;5071472;28;20053;-47
2022/03/06 05:42:52;;;;;;;3.15;2.80;;;;;;;;;;5071165;28;20028;-49
2022/03/06 05:45:18;;;;;;;2.95;2.15;;;;;;;;;;5071664;28;20074;-45
2022/03/06 05:47:44;;;;;;;3.78;2.72;;;;;;;;;;5071037;28;20072;-49
2022/03/06 05:50:10;;;;;;;3.38;2.60;;;;;;;;;;5071280;28;20108;-45
2022/03/06 05:52:36;;;;;;;2.95;2.40;;;;;;;;;;5070827;28;20150;-44
2022/03/06 05:55:03;;;;;;;3.50;2.60;;;;;;;;;;5082136;28;20107;-47
2022/03/06 05:57:29;;;;;;;3.30;2.58;;;;;;;;;;5075863;28;20032;-53
2022/03/06 05:59:55;;;;;;;3.95;3.00;;;;;;;;;;5071320;28;20071;-45
2022/03/06 06:02:22;;;;;;;3.17;2.38;;;;;;;;;;5085879;28;20059;-47
2022/03/06 06:04:48;;;;;;;3.53;2.28;;;;;;;;;;5079586;28;20024;-44
2022/03/06 06:07:14;;;;;;;3.60;2.25;;;;;;;;;;5062937;28;20032;-46
2022/03/06 06:09:40;;;;;;;5.13;3.15;;;;;;;;;;5059978;28;20021;-44
2022/03/06 06:12:07;;;;;;;3.38;2.70;;;;;;;;;;5080595;28;20028;-45
2022/03/06 06:14:33;;;;;;;2.58;2.20;;;;;;;;;;5076133;28;20028;-46
2022/03/06 06:16:59;;;;;;;4.05;2.40;;;;;;;;;;5080127;28;20106;-45
2022/03/06 06:19:25;;;;;;;3.30;2.38;;;;;;;;;;5078653;28;20016;-45
2022/03/06 06:21:51;;;;;;;4.22;2.90;;;;;;;;;;5078244;28;20027;-45
2022/03/06 06:24:17;;;;;;;2.95;2.15;;;;;;;;;;5079829;28;20068;-45
2022/03/06 06:26:45;;;;;;;3.53;2.47;;;;;;;;;;5077614;28;20032;-46
2022/03/06 06:29:12;;;;;;;5.70;3.08;;;;;;;;;;5079559;28;20103;-49
2022/03/06 06:31:38;;;;;;;2.95;2.33;;;;;;;;;;5077745;28;20089;-49
2022/03/06 06:34:04;;;;;;;4.15;2.75;;;;;;;;;;5080825;28;20054;-46
2022/03/06 06:36:30;;;;;;;3.53;2.35;;;;;;;;;;5081189;28;20020;-53
2022/03/06 06:38:56;;;;;;;4.45;2.50;;;;;;;;;;5081435;28;20032;-47
2022/03/06 06:41:23;;;;;;;4.88;2.63;;;;;;;;;;5082737;28;20020;-45
2022/03/06 06:43:49;;;;;;;3.50;2.50;;;;;;;;;;5082133;28;20100;-45
2022/03/06 06:46:15;;;;;;;4.22;2.45;;;;;;;;;;5084098;28;20040;-44
2022/03/06 06:48:41;;;;;;;3.97;3.03;;;;;;;;;;5081256;28;20377;-44
2022/03/06 06:51:08;;;;;;;3.42;2.53;;;;;;;;;;5082855;28;20058;-46
2022/03/06 06:53:34;;;;;;;4.60;2.75;;;;;;;;;;5082750;28;20024;-45
2022/03/06 06:56:00;;;;;;;4.43;2.50;;;;;;;;;;5081556;28;20020;-46
2022/03/06 06:58:26;;;;;;;3.13;2.30;;;;;;;;;;5086696;28;20373;-47
2022/03/06 07:00:52;;;;;;;2.95;2.22;;;;;;;;;;5081508;28;20040;-45
2022/03/06 07:03:18;;;;;;;2.85;2.03;;;;;;;;;;5081298;28;20016;-45
2022/03/06 07:05:47;;;;;;;3.95;2.65;;;;;;;;;;5081793;28;20032;-49
2022/03/06 07:08:13;;;;;;;6.78;2.80;;;;;;;;;;5084581;28;20035;-45
2022/03/06 07:10:39;;;;;;;3.33;2.72;;;;;;;;;;5080589;28;20024;-48
2022/03/06 07:13:05;;;;;;;3.10;2.50;;;;;;;;;;5082048;28;20021;-45
2022/03/06 07:15:32;;;;;;;6.60;2.78;;;;;;;;;;5084463;28;20052;-53
2022/03/06 07:18:01;;;;;;;4.18;2.60;;;;;;;;;;5081012;28;20029;-45
2022/03/06 07:20:28;;;;;;;4.03;2.60;;;;;;;;;;5080887;28;20028;-53
2022/03/06 07:22:55;;;;;;;4.65;2.65;;;;;;;;;;5062881;28;20028;-45
2022/03/06 07:25:21;;;;;;;3.35;2.60;;;;;;;;;;5082280;28;20473;-49
2022/03/06 07:27:47;;;;;;;4.18;2.42;;;;;;;;;;5082139;28;20594;-48
2022/03/06 07:30:14;;;;;;;3.67;2.35;;;;;;;;;;5083174;28;20028;-48
2022/03/06 07:32:51;;;;;;;4.13;3.13;;;;;;;;;;5082875;28;20046;-48
2022/03/06 07:35:17;;;;;;;4.38;2.80;;;;;;;;;;5080667;28;20029;-49
2022/03/06 07:37:43;;;;;;;3.40;2.35;;;;;;;;;;5083713;28;20032;-44
2022/03/06 07:40:10;;;;;;;4.07;2.70;;;;;;;;;;5079976;28;20070;-48
2022/03/06 07:42:36;;;;;;;3.10;2.78;;;;;;;;;;5079615;28;20028;-49
2022/03/06 07:45:03;;;;;;;3.97;2.72;;;;;;;;;;5079816;28;20070;-50
2022/03/06 07:47:29;;;;;;;8.05;2.47;;;;;;;;;;5079160;28;20086;-54
2022/03/06 07:49:55;;;;;;;4.03;3.00;;;;;;;;;;5079281;28;20033;-45
2022/03/06 07:52:20;;;;;;;4.25;2.55;;;;;;;;;;5082982;28;20016;-47
2022/03/06 07:54:47;;;;;;;3.85;2.45;;;;;;;;;;5083673;28;20043;-46
2022/03/06 07:57:13;;;;;;;2.65;2.25;;;;;;;;;;5079980;28;20066;-48
2022/03/06 07:59:39;;;;;;;3.90;2.80;;;;;;;;;;5083918;28;20028;-48
2022/03/06 08:02:05;;;;;;;3.95;2.58;;;;;;;;;;5079898;28;20028;-46
2022/03/06 08:04:31;;;;;;;4.10;2.58;;;;;;;;;;5080325;28;20388;-54
2022/03/06 08:06:57;;;;;;;3.53;2.60;;;;;;;;;;5080501;28;20392;-49
2022/03/06 08:09:24;;;;;;;2.83;2.50;;;;;;;;;;5064293;28;20111;-48
2022/03/06 08:11:50;;;;;;;4.15;2.92;;;;;;;;;;5079850;28;20166;-47
2022/03/06 08:14:16;;;;;;;5.78;2.95;;;;;;;;;;5082373;28;20028;-50
2022/03/06 08:16:42;;;;;;;8.90;2.58;;;;;;;;;;5079073;28;20426;-47
2022/03/06 08:19:08;;;;;;;3.35;2.65;;;;;;;;;;5083559;28;20032;-49
2022/03/06 08:21:34;;;;;;;4.53;3.05;;;;;;;;;;5079068;28;20027;-49
2022/03/06 08:24:01;;;;;;;3.25;2.30;;;;;;;;;;5081818;28;20428;-47
2022/03/06 08:26:27;;;;;;;3.25;2.33;;;;;;;;;;5079405;28;20110;-50
2022/03/06 08:28:53;;;;;;;3.80;2.63;;;;;;;;;;5079659;28;20020;-45
2022/03/06 08:31:20;;;;;;;3.25;2.55;;;;;;;;;;5081809;28;20099;-46
2022/03/06 08:33:46;;;;;;;3.80;2.83;;;;;;;;;;5079778;28;20039;-46
2022/03/06 08:36:12;;;;;;;4.10;2.67;;;;;;;;;;5079656;28;20025;-42
2022/03/06 08:38:38;;;;;;;4.88;2.78;;;;;;;;;;5081114;28;20127;-45
2022/03/06 08:41:04;;;;;;;6.57;2.70;;;;;;;;;;5061847;28;20487;-44
2022/03/06 08:43:30;;;;;;;3.85;2.55;;;;;;;;;;5081602;28;20020;-53
2022/03/06 08:45:56;;;;;;;4.55;3.08;;;;;;;;;;5080744;28;20119;-46
2022/03/06 08:48:22;;;;;;;3.03;2.47;;;;;;;;;;5080514;28;20407;-44
2022/03/06 08:50:49;;;;;;;4.15;2.47;;;;;;;;;;5079555;28;20028;-45
2022/03/06 08:53:15;;;;;;;17.77;3.15;;;;;;;;;;5082428;28;20473;-45
2022/03/06 08:55:41;;;;;;;5.22;2.58;;;;;;;;;;5084717;28;20073;-44
2022/03/06 08:58:07;;;;;;;3.67;2.58;;;;;;;;;;5082191;28;20016;-50
2022/03/06 09:00:33;;;;;;;4.38;2.50;;;;;;;;;;5082306;28;20055;-46
2022/03/06 09:02:59;;;;;;;3.25;2.40;;;;;;;;;;5077836;28;20031;-44
2022/03/06 09:05:26;;;;;;;4.07;2.92;;;;;;;;;;5077385;28;20414;-45
2022/03/06 09:07:52;;;;;;;3.80;2.33;;;;;;;;;;5081574;28;20024;-48
2022/03/06 09:10:18;;;;;;;4.88;3.10;;;;;;;;;;5072042;28;20031;-44
2022/03/06 09:12:44;;;;;;;3.50;2.50;;;;;;;;;;5079108;28;20025;-50
2022/03/06 09:15:10;;;;;;;3.80;2.40;;;;;;;;;;5080206;28;20016;-48
2022/03/06 09:17:37;;;;;;;5.22;2.33;;;;;;;;;;5081067;28;20039;-44
2022/03/06 09:20:04;;;;;;;6.45;3.45;;;;;;;;;;5079809;28;20436;-47
2022/03/06 09:22:30;;;;;;;5.25;2.40;;;;;;;;;;5081314;28;20074;-44
2022/03/06 09:24:56;;;;;;;3.00;2.17;;;;;;;;;;5079960;28;20031;-46
2022/03/06 09:27:21;;;;;;;4.55;2.75;;;;;;;;;;5081483;28;20070;-48
2022/03/06 09:29:48;;;;;;;4.10;2.60;;;;;;;;;;5081050;28;20044;-44
2022/03/06 09:32:14;;;;;;;4.45;2.47;;;;;;;;;;5079866;28;20020;-43
2022/03/06 09:34:40;;;;;;;6.22;3.13;;;;;;;;;;5078728;28;20473;-48
2022/03/06 09:37:06;;;;;;;3.80;2.80;;;;;;;;;;5080220;28;20028;-48
2022/03/06 09:39:32;;;;;;;6.53;2.80;;;;;;;;;;5075431;28;20023;-47
2022/03/06 09:41:58;;;;;;;3.88;2.67;;;;;;;;;;5076805;28;20036;-46
2022/03/06 09:44:24;;;;;;;5.38;2.40;;;;;;;;;;5081841;28;20416;-46
2022/03/06 09:46:52;;;;;;;2.55;2.30;;;;;;;;;;5078594;28;20044;-45
2022/03/06 09:49:18;;;;;;;4.50;3.10;;;;;;;;;;5077642;28;20057;-44
2022/03/06 09:51:45;;;;;;;4.63;2.53;;;;;;;;;;5082774;28;20028;-46
2022/03/06 09:54:12;;;;;;;3.75;2.60;;;;;;;;;;5079958;28;20020;-48
2022/03/06 09:56:38;;;;;;;4.75;2.35;;;;;;;;;;5080412;28;20173;-47
2022/03/06 09:59:04;;;;;;;6.60;2.92;;;;;;;;;;5081036;28;20032;-45
2022/03/06 10:01:30;;;;;;;4.85;2.47;;;;;;;;;;5077882;28;20477;-53
2022/03/06 10:03:56;;;;;;;4.82;2.42;;;;;;;;;;5079298;28;20047;-50
2022/03/06 10:06:23;;;;;;;5.60;2.63;;;;;;;;;;5080005;28;20477;-45
2022/03/06 10:09:02;;;;;;;6.03;3.50;;;;;;;;;;5079666;28;20020;-46
2022/03/06 10:11:28;;;;;;;6.20;2.72;;;;;;;;;;5077791;28;20020;-45
2022/03/06 10:13:54;;;;;;;4.18;2.38;;;;;;;;;;5072903;28;20589;-46
2022/03/06 10:16:21;;;;;;;6.28;2.85;;;;;;;;;;5074519;28;20048;-45
2022/03/06 10:18:47;;;;;;;3.72;2.40;;;;;;;;;;5082328;28;20478;-47
2022/03/06 10:21:13;;;;;;;4.63;2.60;;;;;;;;;;5082616;28;20040;-47
2022/03/06 10:23:40;;;;;;;5.80;3.08;;;;;;;;;;5081435;28;20417;-44
2022/03/06 10:26:08;;;;;;;6.97;2.78;;;;;;;;;;5081085;28;20119;-48
2022/03/06 10:28:42;;;;;;;4.22;2.40;;;;;;;;;;5084310;28;20361;-45
2022/03/06 10:31:08;;;;;;;4.07;2.50;;;;;;;;;;5083599;28;20469;-48
2022/03/06 10:33:34;;;;;;;5.93;2.50;;;;;;;;;;5083512;28;20036;-45
2022/03/06 10:36:02;;;;;;;3.90;2.70;;;;;;;;;;5083086;28;20071;-46
2022/03/06 10:38:28;;;;;;;5.95;3.10;;;;;;;;;;5079067;28;20056;-51
2022/03/06 10:40:55;;;;;;;3.83;2.17;;;;;;;;;;5074950;28;20017;-48
2022/03/06 10:43:25;;;;;;;5.18;2.42;;;;;;;;;;5087245;28;20031;-47
2022/03/06 10:46:04;;;;;;;6.80;2.60;;;;;;;;;;5089378;28;20445;-46
2022/03/06 10:48:30;;;;;;;5.63;2.67;;;;;;;;;;5088900;28;20572;-45
2022/03/06 10:51:00;;;;;;;3.95;2.80;;;;;;;;;;5087094;28;20037;-46
2022/03/06 10:53:27;;;;;;;3.10;2.70;;;;;;;;;;5083515;28;20040;-43
2022/03/06 10:55:54;;;;;;;5.28;2.75;;;;;;;;;;5083335;28;20095;-51
2022/03/06 10:58:20;;;;;;;3.08;2.28;;;;;;;;;;5079821;28;20051;-52
2022/03/06 11:00:47;;;;;;;4.28;2.80;;;;;;;;;;5073520;28;20024;-60
2022/03/06 11:03:13;;;;;;;5.03;3.20;;;;;;;;;;5074045;28;20033;-60
2022/03/06 11:05:44;;;;;;;4.75;2.80;;;;;;;;;;5089091;28;20028;-58
2022/03/06 11:08:13;;;;;;;5.38;2.88;;;;;;;;;;5093901;28;20043;-54
2022/03/06 11:10:41;;;;;;;27.80;3.47;;;;;;;;;;5093521;28;20020;-57
2022/03/06 11:13:07;;;;;;;4.28;2.42;;;;;;;;;;5093965;28;20028;-59
2022/03/06 11:15:34;;;;;;;4.13;2.55;;;;;;;;;;5093588;28;20079;-58
2022/03/06 11:18:01;;;;;;;4.10;2.65;;;;;;;;;;5073607;28;20033;-59
2022/03/06 11:20:30;;;;;;;5.43;2.40;;;;;;;;;;5073806;28;20024;-59
2022/03/06 11:23:15;;;;;;;4.18;2.67;;;;;;;;;;5092078;28;20072;-59
2022/03/06 11:25:46;;;;;;;5.65;2.90;;;;;;;;;;5093185;28;20024;-60
2022/03/06 11:28:32;;;;;;;4.53;2.72;;;;;;;;;;5094065;28;20069;-61
2022/03/06 11:31:02;;;;;;;6.47;2.15;;;;;;;;;;5090084;28;21417;-60
2022/03/06 11:33:28;;;;;;;5.93;3.10;;;;;;;;;;5073342;28;20020;-59
2022/03/06 11:35:55;;;;;;;6.20;3.50;;;;;;;;;;5072943;28;20033;-59
2022/03/06 11:38:22;;;;;;;4.63;2.58;;;;;;;;;;5085091;28;20017;-58
2022/03/06 11:40:50;;;;;;;6.03;3.45;;;;;;;;;;5091689;28;20172;-60
2022/03/06 11:43:31;;;;;;;4.65;2.63;;;;;;;;;;5074554;28;20017;-61
2022/03/06 11:46:12;;;;;;;6.03;3.08;;;;;;;;;;5092764;28;20064;-64
2022/03/06 11:48:38;;;;;;;3.92;2.58;;;;;;;;;;5093292;28;20031;-55
2022/03/06 11:51:17;;;;;;;12.70;2.95;;;;;;;;;;5082159;28;20028;-61
2022/03/06 11:53:52;;;;;;;7.88;2.58;;;;;;;;;;5092843;28;20077;-61
2022/03/06 11:56:33;;;;;;;5.63;2.72;;;;;;;;;;5093400;28;20020;-59
2022/03/06 11:59:04;;;;;;;6.43;2.92;;;;;;;;;;5090568;28;20017;-62
2022/03/06 12:01:50;;;;;;;3.47;2.60;;;;;;;;;;5075271;28;20032;-56
2022/03/06 12:04:17;;;;;;;3.88;2.70;;;;;;;;;;5092652;28;20036;-58
2022/03/06 12:06:47;;;;;;;6.65;2.78;;;;;;;;;;5082992;28;20035;-57
2022/03/06 12:09:17;;;;;;;3.92;2.20;;;;;;;;;;5090778;28;20025;-57
2022/03/06 12:11:44;;;;;;;3.58;2.83;;;;;;;;;;5091523;28;20050;-58
2022/03/06 12:14:30;;;;;;;4.30;2.65;;;;;;;;;;5092931;28;20020;-59
2022/03/06 12:17:07;;;;;;;4.35;2.40;;;;;;;;;;5091970;28;20055;-60
2022/03/06 12:19:37;;;;;;;6.05;2.75;;;;;;;;;;5087499;28;20021;-60
2022/03/06 12:22:09;;;;;;;3.80;2.38;;;;;;;;;;5072017;28;20020;-60
2022/03/06 12:24:35;;;;;;;;;;;;;;;;;;5072996;28;20043;-62
2022/03/06 12:27:10;;;;;;;2.70;2.13;;;;;;;;;;5082205;28;19916;-60
2022/03/06 12:29:48;;;;;;;17.63;3.90;;;;;;;;;;5084939;28;20052;-62
2022/03/06 12:32:31;;;;;;;4.32;2.92;;;;;;;;;;5071843;28;20013;-61
2022/03/06 12:34:57;;;;;;;6.13;2.80;;;;;;;;;;5071654;28;20079;-62
2022/03/06 12:37:23;;;;;;;3.08;2.22;;;;;;;;;;5075417;28;20460;-61
2022/03/06 12:39:50;;;;;;;3.65;2.38;;;;;;;;;;5081097;28;20024;-60
2022/03/06 12:42:23;;;;;;;3.30;2.28;;;;;;;;;;5072272;28;20032;-62
2022/03/06 12:44:52;;;;;;;3.83;3.13;;;;;;;;;;5085242;28;20032;-59
2022/03/06 12:47:18;;;;;;;4.55;2.20;;;;;;;;;;5092012;28;20043;-62
2022/03/06 12:49:48;;;;;;;3.20;2.17;;;;;;;;;;5090540;28;20028;-66
2022/03/06 12:52:18;;;;;;;4.07;2.70;;;;;;;;;;5092424;28;20470;-57
2022/03/06 12:54:48;;;;;;;4.28;2.10;;;;;;;;;;5083178;28;20047;-58
2022/03/06 12:57:14;;;;;;;4.88;2.42;;;;;;;;;;5072106;28;20028;-58
2022/03/06 12:59:41;;;;;;;5.22;2.58;;;;;;;;;;5071964;28;20066;-47
2022/03/06 13:02:08;;;;;;;3.88;2.47;;;;;;;;;;5072115;28;20569;-59
2022/03/06 13:04:34;;;;;;;3.08;2.38;;;;;;;;;;5071951;28;20074;-59
2022/03/06 13:07:00;;;;;;;6.95;3.05;;;;;;;;;;5071235;28;20028;-60
2022/03/06 13:09:29;;;;;;;3.83;2.10;;;;;;;;;;5077607;28;20081;-51
2022/03/06 13:11:56;;;;;;;3.72;2.35;;;;;;;;;;5091412;28;20023;-57
2022/03/06 13:14:27;;;;;;;3.78;2.13;;;;;;;;;;5086271;28;20020;-55
2022/03/06 13:16:57;;;;;;;3.63;2.53;;;;;;;;;;5071065;28;20056;-58
2022/03/06 13:19:23;;;;;;;5.63;3.28;;;;;;;;;;5076228;28;20407;-58
2022/03/06 13:21:49;;;;;;;4.28;2.67;;;;;;;;;;5090540;28;20021;-59
2022/03/06 13:24:15;;;;;;;4.55;2.42;;;;;;;;;;5091942;28;20048;-57
2022/03/06 13:26:42;;;;;;;7.28;2.90;;;;;;;;;;5091397;28;20028;-49
2022/03/06 13:29:14;;;;;;;2.63;2.25;;;;;;;;;;5072946;28;20028;-60
2022/03/06 13:31:41;;;;;;;5.43;2.78;;;;;;;;;;5061577;28;20120;-51
2022/03/06 13:34:08;;;;;;;5.15;3.65;;;;;;;;;;5091394;28;20020;-61
2022/03/06 13:36:36;;;;;;;6.63;4.55;;;;;;;;;;5089177;28;20095;-62
2022/03/06 13:39:29;;;;;;;9.25;4.45;;;;;;;;;;5070900;28;20021;-60
2022/03/06 13:41:58;;;;;;;5.97;4.05;;;;;;;;;;5076238;28;20036;-60
2022/03/06 13:44:25;;;;;;;5.50;3.53;;;;;;;;;;5080760;28;20537;-58
2022/03/06 13:46:51;;;;;;;6.45;3.85;;;;;;;;;;5074715;28;20041;-59
2022/03/06 13:49:19;;;;;;;4.45;3.45;;;;;;;;;;5075500;28;20435;-58
2022/03/06 13:51:45;;;;;;;10.20;4.25;;;;;;;;;;5082833;28;20020;-59
2022/03/06 13:54:11;;;;;;;5.55;4.22;;;;;;;;;;5095730;28;20036;-59
2022/03/06 13:56:46;;;;;;;4.40;3.35;;;;;;;;;;5095512;28;20028;-65
2022/03/06 13:59:23;;;;;;;6.45;3.75;;;;;;;;;;5095385;28;20024;-61
2022/03/06 14:01:49;;;;;;;6.03;3.70;;;;;;;;;;5094387;28;20371;-60
2022/03/06 14:04:15;;;;;;;5.47;4.05;;;;;;;;;;5095416;28;20020;-61
2022/03/06 14:06:43;;;;;;;5.70;3.50;;;;;;;;;;5094887;28;20035;-59
2022/03/06 14:09:26;;;;;;;6.82;3.63;;;;;;;;;;5091647;28;20347;-64
2022/03/06 14:12:04;;;;;;;4.13;3.03;;;;;;;;;;5083000;28;20486;-60
2022/03/06 14:14:56;;;;;;;17.23;3.22;;;;;;;;;;5095477;28;20024;-60
2022/03/06 14:17:23;;;;;;;;;;;;;;;;;;5079680;28;20075;-59
2022/03/06 14:19:55;;;;;;;5.78;3.50;;;;;;;;;;5081154;28;19912;-60
2022/03/06 14:22:21;;;;;;;5.10;3.08;;;;;;;;;;5079335;28;20031;-60
2022/03/06 14:24:47;;;;;;;3.85;3.15;;;;;;;;;;5081599;28;20431;-59
2022/03/06 14:27:13;;;;;;;5.43;2.95;;;;;;;;;;5083612;28;20055;-61
2022/03/06 14:29:41;;;;;;;7.72;5.40;;;;;;;;;;5080970;28;20058;-59
2022/03/06 14:32:07;;;;;;;6.40;4.80;;;;;;;;;;5082422;28;20025;-59
2022/03/06 14:34:34;;;;;;;5.40;4.22;;;;;;;;;;5081185;28;20044;-58
2022/03/06 14:37:01;;;;;;;4.72;3.60;;;;;;;;;;5082147;28;20477;-58
2022/03/06 14:39:29;;;;;;;6.18;4.43;;;;;;;;;;5081174;28;20094;-60
2022/03/06 14:41:55;;;;;;;6.03;2.85;;;;;;;;;;5080015;28;20027;-58
2022/03/06 14:44:21;;;;;;;3.97;3.50;;;;;;;;;;5082669;28;20016;-58